sensor_id;sensor_type;location;lat;lon;timestamp;pressure;altitude;pressure_sealevel;temperature;humidity
53246;BME280;39569;51.090;-1.786;2022-07-23T00:01:25;101291.78;;;14.90;87.26
53246;BME280;39569;51.090;-1.786;2022-07-23T00:03:53;101295.81;;;15.01;87.64
53246;BME280;39569;51.090;-1.786;2022-07-23T00:06:20;101287.41;;;14.89;87.68
53246;BME280;39569;51.090;-1.786;2022-07-23T00:08:47;101297.50;;;14.87;87.64
53246;BME280;39569;51.090;-1.786;2022-07-23T00:11:14;101293.97;;;14.87;87.25
53246;BME280;39569;51.090;-1.786;2022-07-23T00:13:41;101281.63;;;14.92;87.45
53246;BME280;39569;51.090;-1.786;2022-07-23T00:16:09;101289.19;;;14.82;86.62
53246;BME280;39569;51.090;-1.786;2022-07-23T00:18:36;101280.94;;;14.69;87.38
53246;BME280;39569;51.090;-1.786;2022-07-23T00:21:03;101282.53;;;14.63;88.26
53246;BME280;39569;51.090;-1.786;2022-07-23T00:23:29;101280.75;;;14.56;88.09
53246;BME280;39569;51.090;-1.786;2022-07-23T00:25:57;101276.97;;;14.50;88.51
53246;BME280;39569;51.090;-1.786;2022-07-23T00:28:24;101276.13;;;14.50;88.05
53246;BME280;39569;51.090;-1.786;2022-07-23T00:30:50;101283.09;;;14.44;88.66
53246;BME280;39569;51.090;-1.786;2022-07-23T00:33:19;101278.75;;;14.43;88.65
53246;BME280;39569;51.090;-1.786;2022-07-23T00:35:46;101288.19;;;14.39;88.58
53246;BME280;39569;51.090;-1.786;2022-07-23T00:38:12;101292.84;;;14.31;88.68
53246;BME280;39569;51.090;-1.786;2022-07-23T00:40:40;101290.00;;;14.24;88.52
53246;BME280;39569;51.090;-1.786;2022-07-23T00:43:07;101293.44;;;14.33;89.39
53246;BME280;39569;51.090;-1.786;2022-07-23T00:45:33;101286.16;;;14.27;89.05
53246;BME280;39569;51.090;-1.786;2022-07-23T00:48:00;101287.03;;;14.19;88.54
53246;BME280;39569;51.090;-1.786;2022-07-23T00:50:29;101287.75;;;14.13;89.03
53246;BME280;39569;51.090;-1.786;2022-07-23T00:52:56;101285.72;;;14.15;89.15
53246;BME280;39569;51.090;-1.786;2022-07-23T00:55:23;101286.00;;;14.06;89.68
53246;BME280;39569;51.090;-1.786;2022-07-23T00:57:50;101287.69;;;14.07;90.15
53246;BME280;39569;51.090;-1.786;2022-07-23T01:00:19;101286.00;;;14.06;89.15
53246;BME280;39569;51.090;-1.786;2022-07-23T01:02:46;101288.03;;;14.04;89.73
53246;BME280;39569;51.090;-1.786;2022-07-23T01:05:13;101282.00;;;14.02;89.49
53246;BME280;39569;51.090;-1.786;2022-07-23T01:07:41;101277.94;;;14.06;89.12
53246;BME280;39569;51.090;-1.786;2022-07-23T01:10:09;101275.94;;;13.85;89.82
53246;BME280;39569;51.090;-1.786;2022-07-23T01:12:49;101271.69;;;13.76;90.58
53246;BME280;39569;51.090;-1.786;2022-07-23T01:15:16;101274.53;;;13.74;90.61
53246;BME280;39569;51.090;-1.786;2022-07-23T01:17:43;101268.47;;;13.80;90.65
53246;BME280;39569;51.090;-1.786;2022-07-23T01:20:10;101264.03;;;13.88;90.80
53246;BME280;39569;51.090;-1.786;2022-07-23T01:22:38;101256.63;;;13.90;89.47
53246;BME280;39569;51.090;-1.786;2022-07-23T01:25:06;101258.75;;;13.94;88.58
53246;BME280;39569;51.090;-1.786;2022-07-23T01:27:33;101257.16;;;13.85;88.54
53246;BME280;39569;51.090;-1.786;2022-07-23T01:30:00;101262.78;;;13.75;89.13
53246;BME280;39569;51.090;-1.786;2022-07-23T01:32:28;101256.28;;;13.70;89.70
53246;BME280;39569;51.090;-1.786;2022-07-23T01:34:55;101259.53;;;13.65;90.10
53246;BME280;39569;51.090;-1.786;2022-07-23T01:37:21;101251.47;;;13.65;90.33
53246;BME280;39569;51.090;-1.786;2022-07-23T01:39:50;101256.84;;;13.65;90.16
53246;BME280;39569;51.090;-1.786;2022-07-23T01:42:16;101256.47;;;13.68;90.14
53246;BME280;39569;51.090;-1.786;2022-07-23T01:44:43;101256.19;;;13.63;89.91
53246;BME280;39569;51.090;-1.786;2022-07-23T01:47:10;101260.25;;;13.59;90.19
53246;BME280;39569;51.090;-1.786;2022-07-23T01:49:37;101254.69;;;13.61;90.12
53246;BME280;39569;51.090;-1.786;2022-07-23T01:52:04;101256.19;;;13.63;90.53
53246;BME280;39569;51.090;-1.786;2022-07-23T01:54:34;101254.59;;;13.54;90.86
53246;BME280;39569;51.090;-1.786;2022-07-23T01:57:03;101251.44;;;13.51;91.13
53246;BME280;39569;51.090;-1.786;2022-07-23T01:59:30;101254.19;;;13.43;90.68
53246;BME280;39569;51.090;-1.786;2022-07-23T02:01:57;101262.28;;;13.35;91.21
53246;BME280;39569;51.090;-1.786;2022-07-23T02:04:25;101261.53;;;13.26;91.61
53246;BME280;39569;51.090;-1.786;2022-07-23T02:06:52;101256.84;;;13.20;91.95
53246;BME280;39569;51.090;-1.786;2022-07-23T02:09:19;101263.25;;;13.19;91.71
53246;BME280;39569;51.090;-1.786;2022-07-23T02:11:46;101261.81;;;13.09;91.98
53246;BME280;39569;51.090;-1.786;2022-07-23T02:14:15;101255.72;;;13.15;92.06
53246;BME280;39569;51.090;-1.786;2022-07-23T02:16:41;101249.78;;;13.05;92.06
53246;BME280;39569;51.090;-1.786;2022-07-23T02:19:08;101256.78;;;13.06;92.11
53246;BME280;39569;51.090;-1.786;2022-07-23T02:21:35;101254.31;;;12.96;91.96
53246;BME280;39569;51.090;-1.786;2022-07-23T02:24:02;101262.72;;;12.93;92.59
53246;BME280;39569;51.090;-1.786;2022-07-23T02:26:29;101256.06;;;12.81;92.75
53246;BME280;39569;51.090;-1.786;2022-07-23T02:28:57;101258.13;;;12.71;93.21
53246;BME280;39569;51.090;-1.786;2022-07-23T02:31:25;101256.81;;;12.67;92.90
53246;BME280;39569;51.090;-1.786;2022-07-23T02:33:52;101264.88;;;12.59;93.24
53246;BME280;39569;51.090;-1.786;2022-07-23T02:36:19;101274.44;;;12.61;93.11
53246;BME280;39569;51.090;-1.786;2022-07-23T02:38:46;101263.59;;;12.55;93.82
53246;BME280;39569;51.090;-1.786;2022-07-23T02:41:12;101264.72;;;12.60;93.79
53246;BME280;39569;51.090;-1.786;2022-07-23T02:43:39;101269.44;;;12.58;93.43
53246;BME280;39569;51.090;-1.786;2022-07-23T02:46:06;101282.81;;;12.58;93.87
53246;BME280;39569;51.090;-1.786;2022-07-23T02:48:34;101275.44;;;12.60;93.29
53246;BME280;39569;51.090;-1.786;2022-07-23T02:51:01;101274.72;;;12.66;93.69
53246;BME280;39569;51.090;-1.786;2022-07-23T02:53:28;101271.38;;;12.64;92.98
53246;BME280;39569;51.090;-1.786;2022-07-23T02:55:55;101273.91;;;12.66;93.48
53246;BME280;39569;51.090;-1.786;2022-07-23T02:58:21;101277.97;;;12.54;93.08
53246;BME280;39569;51.090;-1.786;2022-07-23T03:00:48;101280.00;;;12.52;93.03
53246;BME280;39569;51.090;-1.786;2022-07-23T03:03:16;101284.84;;;12.48;92.64
53246;BME280;39569;51.090;-1.786;2022-07-23T03:05:44;101281.03;;;12.35;93.51
53246;BME280;39569;51.090;-1.786;2022-07-23T03:08:10;101288.44;;;12.33;93.47
53246;BME280;39569;51.090;-1.786;2022-07-23T03:10:37;101279.56;;;12.32;93.78
53246;BME280;39569;51.090;-1.786;2022-07-23T03:13:04;101279.56;;;12.24;93.63
53246;BME280;39569;51.090;-1.786;2022-07-23T03:15:31;101278.06;;;12.30;93.72
53246;BME280;39569;51.090;-1.786;2022-07-23T03:17:58;101270.84;;;12.38;93.66
53246;BME280;39569;51.090;-1.786;2022-07-23T03:20:25;101275.97;;;12.48;93.52
53246;BME280;39569;51.090;-1.786;2022-07-23T03:22:53;101280.41;;;12.33;92.76
53246;BME280;39569;51.090;-1.786;2022-07-23T03:25:19;101294.31;;;12.20;93.46
53246;BME280;39569;51.090;-1.786;2022-07-23T03:27:46;101283.09;;;12.17;93.46
53246;BME280;39569;51.090;-1.786;2022-07-23T03:30:13;101286.47;;;12.11;93.58
53246;BME280;39569;51.090;-1.786;2022-07-23T03:32:40;101283.28;;;12.07;93.14
53246;BME280;39569;51.090;-1.786;2022-07-23T03:35:07;101287.00;;;12.06;93.98
53246;BME280;39569;51.090;-1.786;2022-07-23T03:37:34;101283.47;;;12.06;93.63
53246;BME280;39569;51.090;-1.786;2022-07-23T03:40:03;101288.66;;;12.07;93.53
53246;BME280;39569;51.090;-1.786;2022-07-23T03:42:30;101288.34;;;12.02;93.86
53246;BME280;39569;51.090;-1.786;2022-07-23T03:44:57;101285.31;;;12.05;94.09
53246;BME280;39569;51.090;-1.786;2022-07-23T03:47:24;101287.16;;;12.05;93.60
53246;BME280;39569;51.090;-1.786;2022-07-23T03:49:50;101288.31;;;12.10;93.94
53246;BME280;39569;51.090;-1.786;2022-07-23T03:52:17;101286.31;;;12.12;93.48
53246;BME280;39569;51.090;-1.786;2022-07-23T03:54:44;101280.97;;;12.04;93.77
53246;BME280;39569;51.090;-1.786;2022-07-23T03:57:12;101279.63;;;12.00;93.69
53246;BME280;39569;51.090;-1.786;2022-07-23T03:59:39;101275.25;;;12.07;93.91
53246;BME280;39569;51.090;-1.786;2022-07-23T04:02:06;101281.31;;;12.01;93.66
53246;BME280;39569;51.090;-1.786;2022-07-23T04:04:32;101277.78;;;12.01;93.83
53246;BME280;39569;51.090;-1.786;2022-07-23T04:06:59;101282.63;;;12.13;94.13
53246;BME280;39569;51.090;-1.786;2022-07-23T04:09:26;101286.31;;;12.12;93.17
53246;BME280;39569;51.090;-1.786;2022-07-23T04:11:53;101276.63;;;11.95;92.81
53246;BME280;39569;51.090;-1.786;2022-07-23T04:14:21;101280.16;;;11.88;92.98
53246;BME280;39569;51.090;-1.786;2022-07-23T04:16:48;101283.66;;;11.72;93.23
53246;BME280;39569;51.090;-1.786;2022-07-23T04:19:14;101282.34;;;11.76;93.30
53246;BME280;39569;51.090;-1.786;2022-07-23T04:21:41;101288.34;;;11.78;93.26
53246;BME280;39569;51.090;-1.786;2022-07-23T04:24:08;101282.50;;;11.74;93.57
53246;BME280;39569;51.090;-1.786;2022-07-23T04:26:35;101290.88;;;11.71;93.39
53246;BME280;39569;51.090;-1.786;2022-07-23T04:29:01;101279.00;;;11.74;93.45
53246;BME280;39569;51.090;-1.786;2022-07-23T04:31:29;101283.69;;;11.80;93.15
53246;BME280;39569;51.090;-1.786;2022-07-23T04:33:56;101286.53;;;11.87;92.97
53246;BME280;39569;51.090;-1.786;2022-07-23T04:36:23;101287.16;;;11.88;92.55
53246;BME280;39569;51.090;-1.786;2022-07-23T04:38:50;101283.31;;;11.91;92.85
53246;BME280;39569;51.090;-1.786;2022-07-23T04:41:16;101294.69;;;11.85;93.13
53246;BME280;39569;51.090;-1.786;2022-07-23T04:43:43;101295.72;;;11.92;93.20
53246;BME280;39569;51.090;-1.786;2022-07-23T04:46:10;101289.50;;;12.00;93.52
53246;BME280;39569;51.090;-1.786;2022-07-23T04:48:38;101280.13;;;12.04;92.68
53246;BME280;39569;51.090;-1.786;2022-07-23T04:51:05;101283.97;;;12.09;92.55
53246;BME280;39569;51.090;-1.786;2022-07-23T04:53:32;101278.94;;;12.14;92.49
53246;BME280;39569;51.090;-1.786;2022-07-23T04:55:59;101280.59;;;12.23;92.25
53246;BME280;39569;51.090;-1.786;2022-07-23T04:58:26;101284.25;;;12.30;92.18
53246;BME280;39569;51.090;-1.786;2022-07-23T05:00:52;101281.72;;;12.37;91.66
53246;BME280;39569;51.090;-1.786;2022-07-23T05:03:19;101283.59;;;12.28;91.56
53246;BME280;39569;51.090;-1.786;2022-07-23T05:05:47;101287.59;;;12.32;91.91
53246;BME280;39569;51.090;-1.786;2022-07-23T05:08:15;101299.31;;;12.31;91.80
53246;BME280;39569;51.090;-1.786;2022-07-23T05:10:42;101294.44;;;12.35;92.01
53246;BME280;39569;51.090;-1.786;2022-07-23T05:13:09;101290.88;;;12.50;91.84
53246;BME280;39569;51.090;-1.786;2022-07-23T05:15:35;101285.13;;;12.69;91.75
53246;BME280;39569;51.090;-1.786;2022-07-23T05:18:02;101296.38;;;12.96;91.11
53246;BME280;39569;51.090;-1.786;2022-07-23T05:20:29;101304.19;;;13.13;89.97
53246;BME280;39569;51.090;-1.786;2022-07-23T05:22:57;101303.84;;;13.39;87.07
53246;BME280;39569;51.090;-1.786;2022-07-23T05:25:24;101303.38;;;13.58;87.00
53246;BME280;39569;51.090;-1.786;2022-07-23T05:27:51;101301.72;;;13.94;85.55
53246;BME280;39569;51.090;-1.786;2022-07-23T05:30:18;101304.50;;;14.38;83.16
53246;BME280;39569;51.090;-1.786;2022-07-23T05:32:45;101297.31;;;15.24;79.59
53246;BME280;39569;51.090;-1.786;2022-07-23T05:35:12;101297.59;;;16.20;78.04
53246;BME280;39569;51.090;-1.786;2022-07-23T05:37:38;101294.25;;;16.87;72.72
53246;BME280;39569;51.090;-1.786;2022-07-23T05:40:09;101290.44;;;17.22;71.33
53246;BME280;39569;51.090;-1.786;2022-07-23T05:42:36;101295.91;;;17.48;71.55
53246;BME280;39569;51.090;-1.786;2022-07-23T05:45:03;101295.91;;;18.46;66.46
53246;BME280;39569;51.090;-1.786;2022-07-23T05:47:39;101284.13;;;18.85;66.41
53246;BME280;39569;51.090;-1.786;2022-07-23T05:50:06;101287.78;;;19.47;63.74
53246;BME280;39569;51.090;-1.786;2022-07-23T05:52:33;101297.91;;;19.21;63.12
53246;BME280;39569;51.090;-1.786;2022-07-23T05:55:00;101294.56;;;19.32;63.43
53246;BME280;39569;51.090;-1.786;2022-07-23T05:57:28;101307.78;;;18.32;65.93
53246;BME280;39569;51.090;-1.786;2022-07-23T05:59:55;101295.22;;;19.14;64.46
53246;BME280;39569;51.090;-1.786;2022-07-23T06:02:21;101284.13;;;18.91;64.19
53246;BME280;39569;51.090;-1.786;2022-07-23T06:04:48;101294.34;;;20.14;60.19
53246;BME280;39569;51.090;-1.786;2022-07-23T06:07:15;101283.78;;;20.85;59.41
53246;BME280;39569;51.090;-1.786;2022-07-23T06:09:42;101285.56;;;19.69;62.42
53246;BME280;39569;51.090;-1.786;2022-07-23T06:12:08;101284.00;;;20.29;59.37
53246;BME280;39569;51.090;-1.786;2022-07-23T06:14:37;101283.72;;;20.73;59.18
53246;BME280;39569;51.090;-1.786;2022-07-23T06:17:03;101273.59;;;21.58;57.04
53246;BME280;39569;51.090;-1.786;2022-07-23T06:19:30;101271.00;;;21.63;54.88
53246;BME280;39569;51.090;-1.786;2022-07-23T06:21:57;101279.84;;;20.99;57.98
53246;BME280;39569;51.090;-1.786;2022-07-23T06:24:23;101276.03;;;21.06;56.26
53246;BME280;39569;51.090;-1.786;2022-07-23T06:26:50;101283.28;;;20.58;60.99
53246;BME280;39569;51.090;-1.786;2022-07-23T06:29:17;101279.94;;;21.40;57.00
53246;BME280;39569;51.090;-1.786;2022-07-23T06:31:45;101286.47;;;22.26;55.16
53246;BME280;39569;51.090;-1.786;2022-07-23T06:34:12;101280.06;;;22.56;53.83
53246;BME280;39569;51.090;-1.786;2022-07-23T06:36:39;101290.25;;;22.14;55.16
53246;BME280;39569;51.090;-1.786;2022-07-23T06:39:06;101292.66;;;21.69;56.72
53246;BME280;39569;51.090;-1.786;2022-07-23T06:41:33;101290.81;;;21.10;58.32
53246;BME280;39569;51.090;-1.786;2022-07-23T06:44:00;101296.28;;;20.07;62.37
53246;BME280;39569;51.090;-1.786;2022-07-23T06:46:26;101300.22;;;20.72;60.21
53246;BME280;39569;51.090;-1.786;2022-07-23T06:48:55;101299.00;;;20.31;61.06
53246;BME280;39569;51.090;-1.786;2022-07-23T06:51:21;101307.78;;;19.53;64.93
53246;BME280;39569;51.090;-1.786;2022-07-23T06:53:48;101295.69;;;19.80;64.30
53246;BME280;39569;51.090;-1.786;2022-07-23T06:56:15;101305.69;;;18.27;69.09
53246;BME280;39569;51.090;-1.786;2022-07-23T06:58:41;101301.16;;;18.02;70.36
53246;BME280;39569;51.090;-1.786;2022-07-23T07:01:08;101304.88;;;19.04;67.88
53246;BME280;39569;51.090;-1.786;2022-07-23T07:03:35;101306.75;;;19.79;65.56
53246;BME280;39569;51.090;-1.786;2022-07-23T07:06:03;101304.25;;;20.02;63.56
53246;BME280;39569;51.090;-1.786;2022-07-23T07:08:30;101298.19;;;21.63;58.65
53246;BME280;39569;51.090;-1.786;2022-07-23T07:10:57;101308.59;;;20.70;61.73
53246;BME280;39569;51.090;-1.786;2022-07-23T07:13:24;101293.06;;;21.13;59.03
53246;BME280;39569;51.090;-1.786;2022-07-23T07:15:51;101296.31;;;20.86;60.71
53246;BME280;39569;51.090;-1.786;2022-07-23T07:18:17;101296.22;;;20.92;60.52
53246;BME280;39569;51.090;-1.786;2022-07-23T07:20:44;101304.25;;;21.35;59.83
53246;BME280;39569;51.090;-1.786;2022-07-23T07:23:13;101302.91;;;21.56;59.28
53246;BME280;39569;51.090;-1.786;2022-07-23T07:25:40;101310.56;;;22.00;57.01
53246;BME280;39569;51.090;-1.786;2022-07-23T07:28:07;101312.84;;;22.14;58.04
53246;BME280;39569;51.090;-1.786;2022-07-23T07:30:33;101323.50;;;22.04;56.83
53246;BME280;39569;51.090;-1.786;2022-07-23T07:33:00;101316.94;;;23.99;52.74
53246;BME280;39569;51.090;-1.786;2022-07-23T07:35:27;101315.66;;;24.73;50.94
53246;BME280;39569;51.090;-1.786;2022-07-23T07:37:54;101311.16;;;23.79;52.26
53246;BME280;39569;51.090;-1.786;2022-07-23T07:40:22;101312.72;;;23.18;54.66
53246;BME280;39569;51.090;-1.786;2022-07-23T07:42:50;101304.38;;;24.31;52.49
53246;BME280;39569;51.090;-1.786;2022-07-23T07:45:19;101303.00;;;25.37;49.95
53246;BME280;39569;51.090;-1.786;2022-07-23T07:47:46;101306.19;;;24.80;49.76
53246;BME280;39569;51.090;-1.786;2022-07-23T07:50:13;101303.44;;;25.02;49.92
53246;BME280;39569;51.090;-1.786;2022-07-23T07:52:40;101296.59;;;25.74;48.25
53246;BME280;39569;51.090;-1.786;2022-07-23T07:55:09;101297.34;;;26.33;46.32
53246;BME280;39569;51.090;-1.786;2022-07-23T07:57:37;101304.34;;;24.86;49.78
53246;BME280;39569;51.090;-1.786;2022-07-23T08:00:06;101295.69;;;24.34;52.12
53246;BME280;39569;51.090;-1.786;2022-07-23T08:02:40;101307.44;;;24.94;48.89
53246;BME280;39569;51.090;-1.786;2022-07-23T08:05:08;101292.69;;;26.80;45.17
53246;BME280;39569;51.090;-1.786;2022-07-23T08:07:34;101294.53;;;25.60;49.78
53246;BME280;39569;51.090;-1.786;2022-07-23T08:10:03;101299.31;;;25.48;47.05
53246;BME280;39569;51.090;-1.786;2022-07-23T08:12:39;101304.25;;;25.24;48.19
53246;BME280;39569;51.090;-1.786;2022-07-23T08:15:07;101302.22;;;26.26;45.76
53246;BME280;39569;51.090;-1.786;2022-07-23T08:17:34;101292.06;;;25.90;49.42
53246;BME280;39569;51.090;-1.786;2022-07-23T08:20:01;101286.22;;;25.50;46.40
53246;BME280;39569;51.090;-1.786;2022-07-23T08:22:41;101286.56;;;28.51;40.48
53246;BME280;39569;51.090;-1.786;2022-07-23T08:25:08;101290.44;;;29.24;38.15
53246;BME280;39569;51.090;-1.786;2022-07-23T08:27:35;101303.25;;;26.20;45.29
53246;BME280;39569;51.090;-1.786;2022-07-23T08:30:04;101298.25;;;26.07;46.46
53246;BME280;39569;51.090;-1.786;2022-07-23T08:32:31;101299.72;;;27.23;42.68
53246;BME280;39569;51.090;-1.786;2022-07-23T08:34:58;101300.78;;;25.87;45.69
53246;BME280;39569;51.090;-1.786;2022-07-23T08:37:24;101302.03;;;29.10;40.87
53246;BME280;39569;51.090;-1.786;2022-07-23T08:39:51;101298.88;;;28.78;40.71
53246;BME280;39569;51.090;-1.786;2022-07-23T08:42:18;101299.50;;;27.45;42.33
53246;BME280;39569;51.090;-1.786;2022-07-23T08:44:47;101295.97;;;27.79;40.59
53246;BME280;39569;51.090;-1.786;2022-07-23T08:47:16;101288.28;;;27.76;41.84
53246;BME280;39569;51.090;-1.786;2022-07-23T08:49:43;101288.81;;;29.23;38.71
53246;BME280;39569;51.090;-1.786;2022-07-23T08:52:10;101275.53;;;30.36;36.23
53246;BME280;39569;51.090;-1.786;2022-07-23T08:54:38;101290.66;;;28.68;37.41
53246;BME280;39569;51.090;-1.786;2022-07-23T08:57:04;101290.47;;;27.54;40.18
53246;BME280;39569;51.090;-1.786;2022-07-23T08:59:31;101299.38;;;27.04;41.18
53246;BME280;39569;51.090;-1.786;2022-07-23T09:01:58;101293.72;;;27.31;41.39
53246;BME280;39569;51.090;-1.786;2022-07-23T09:04:27;101299.88;;;29.02;37.95
53246;BME280;39569;51.090;-1.786;2022-07-23T09:06:54;101290.38;;;30.40;34.04
53246;BME280;39569;51.090;-1.786;2022-07-23T09:09:21;101284.16;;;30.76;32.94
53246;BME280;39569;51.090;-1.786;2022-07-23T09:12:02;101292.03;;;29.73;35.02
53246;BME280;39569;51.090;-1.786;2022-07-23T09:14:36;101282.44;;;29.71;34.13
53246;BME280;39569;51.090;-1.786;2022-07-23T09:17:09;101285.94;;;28.84;35.61
53246;BME280;39569;51.090;-1.786;2022-07-23T09:19:38;101281.91;;;28.61;36.60
53246;BME280;39569;51.090;-1.786;2022-07-23T09:22:18;101287.13;;;28.58;37.67
53246;BME280;39569;51.090;-1.786;2022-07-23T09:25:03;101278.63;;;30.24;34.51
53246;BME280;39569;51.090;-1.786;2022-07-23T09:27:46;101285.47;;;29.26;36.23
53246;BME280;39569;51.090;-1.786;2022-07-23T09:30:13;101284.16;;;28.19;38.11
53246;BME280;39569;51.090;-1.786;2022-07-23T09:32:41;101290.44;;;28.60;38.89
53246;BME280;39569;51.090;-1.786;2022-07-23T09:35:09;101295.25;;;28.93;38.72
53246;BME280;39569;51.090;-1.786;2022-07-23T09:37:36;101285.44;;;28.67;37.78
53246;BME280;39569;51.090;-1.786;2022-07-23T09:40:04;101276.97;;;29.61;35.91
53246;BME280;39569;51.090;-1.786;2022-07-23T09:42:31;101277.50;;;30.30;34.48
53246;BME280;39569;51.090;-1.786;2022-07-23T09:44:58;101274.69;;;31.62;33.27
53246;BME280;39569;51.090;-1.786;2022-07-23T09:47:28;101274.34;;;30.89;33.08
53246;BME280;39569;51.090;-1.786;2022-07-23T09:49:59;101277.44;;;30.35;34.38
53246;BME280;39569;51.090;-1.786;2022-07-23T09:52:28;101276.19;;;29.55;38.03
53246;BME280;39569;51.090;-1.786;2022-07-23T09:54:59;101282.84;;;29.88;35.35
53246;BME280;39569;51.090;-1.786;2022-07-23T09:57:27;101282.72;;;29.64;34.65
53246;BME280;39569;51.090;-1.786;2022-07-23T09:59:57;101281.31;;;28.64;36.70
53246;BME280;39569;51.090;-1.786;2022-07-23T10:02:25;101272.66;;;28.02;40.16
53246;BME280;39569;51.090;-1.786;2022-07-23T10:04:53;101282.56;;;28.97;37.20
53246;BME280;39569;51.090;-1.786;2022-07-23T10:07:22;101273.91;;;28.50;37.16
53246;BME280;39569;51.090;-1.786;2022-07-23T10:09:51;101269.44;;;26.98;42.21
53246;BME280;39569;51.090;-1.786;2022-07-23T10:12:19;101262.59;;;29.30;36.38
53246;BME280;39569;51.090;-1.786;2022-07-23T10:15:00;101254.56;;;30.06;36.33
53246;BME280;39569;51.090;-1.786;2022-07-23T10:17:27;101258.22;;;28.60;38.53
53246;BME280;39569;51.090;-1.786;2022-07-23T10:19:55;101247.66;;;29.41;37.91
53246;BME280;39569;51.090;-1.786;2022-07-23T10:22:24;101252.22;;;28.58;37.73
53246;BME280;39569;51.090;-1.786;2022-07-23T10:25:10;101260.00;;;27.76;40.81
53246;BME280;39569;51.090;-1.786;2022-07-23T10:27:55;101252.44;;;29.98;37.66
53246;BME280;39569;51.090;-1.786;2022-07-23T10:30:31;101252.22;;;30.18;36.19
53246;BME280;39569;51.090;-1.786;2022-07-23T10:33:15;101257.94;;;31.35;34.55
53246;BME280;39569;51.090;-1.786;2022-07-23T10:35:48;101263.06;;;30.38;35.04
53246;BME280;39569;51.090;-1.786;2022-07-23T10:38:21;101262.81;;;29.77;36.00
53246;BME280;39569;51.090;-1.786;2022-07-23T10:40:58;101265.91;;;29.66;35.63
53246;BME280;39569;51.090;-1.786;2022-07-23T10:43:26;101265.63;;;30.82;35.67
53246;BME280;39569;51.090;-1.786;2022-07-23T10:45:53;101273.38;;;30.28;35.55
53246;BME280;39569;51.090;-1.786;2022-07-23T10:48:21;101265.78;;;31.09;35.20
53246;BME280;39569;51.090;-1.786;2022-07-23T10:51:09;101264.47;;;32.81;31.50
53246;BME280;39569;51.090;-1.786;2022-07-23T10:53:57;101257.94;;;30.98;32.99
53246;BME280;39569;51.090;-1.786;2022-07-23T10:57:04;101255.69;;;30.57;33.31
53246;BME280;39569;51.090;-1.786;2022-07-23T11:02:38;101263.41;;;29.31;36.98
53246;BME280;39569;51.090;-1.786;2022-07-23T11:05:07;101258.84;;;28.27;39.64
53246;BME280;39569;51.090;-1.786;2022-07-23T11:07:35;101255.34;;;28.06;40.69
53246;BME280;39569;51.090;-1.786;2022-07-23T11:10:03;101250.34;;;28.29;40.78
53246;BME280;39569;51.090;-1.786;2022-07-23T11:12:37;101258.97;;;26.80;41.42
53246;BME280;39569;51.090;-1.786;2022-07-23T11:15:06;101251.16;;;26.57;42.24
53246;BME280;39569;51.090;-1.786;2022-07-23T11:17:35;101249.81;;;25.81;44.99
53246;BME280;39569;51.090;-1.786;2022-07-23T11:20:22;101257.19;;;25.44;46.04
53246;BME280;39569;51.090;-1.786;2022-07-23T11:22:51;101259.44;;;25.03;46.48
53246;BME280;39569;51.090;-1.786;2022-07-23T11:25:34;101266.19;;;24.96;48.41
53246;BME280;39569;51.090;-1.786;2022-07-23T11:28:14;101266.53;;;25.26;47.76
53246;BME280;39569;51.090;-1.786;2022-07-23T11:30:44;101269.13;;;24.89;49.04
53246;BME280;39569;51.090;-1.786;2022-07-23T11:33:19;101265.72;;;24.61;48.36
53246;BME280;39569;51.090;-1.786;2022-07-23T11:35:47;101257.00;;;25.55;48.25
53246;BME280;39569;51.090;-1.786;2022-07-23T11:38:17;101258.94;;;25.55;46.85
53246;BME280;39569;51.090;-1.786;2022-07-23T11:40:46;101259.13;;;26.58;46.11
53246;BME280;39569;51.090;-1.786;2022-07-23T11:43:14;101256.13;;;26.65;44.81
53246;BME280;39569;51.090;-1.786;2022-07-23T11:45:43;101264.69;;;25.58;46.50
53246;BME280;39569;51.090;-1.786;2022-07-23T11:48:17;101261.31;;;26.14;46.05
53246;BME280;39569;51.090;-1.786;2022-07-23T11:50:44;101255.44;;;25.64;46.84
53246;BME280;39569;51.090;-1.786;2022-07-23T11:53:11;101253.88;;;25.42;47.35
53246;BME280;39569;51.090;-1.786;2022-07-23T11:55:38;101253.56;;;25.16;47.36
53246;BME280;39569;51.090;-1.786;2022-07-23T11:58:05;101261.06;;;25.26;47.96
53246;BME280;39569;51.090;-1.786;2022-07-23T12:00:33;101266.84;;;25.29;48.31
53246;BME280;39569;51.090;-1.786;2022-07-23T12:03:01;101264.63;;;25.53;47.53
53246;BME280;39569;51.090;-1.786;2022-07-23T12:05:30;101250.06;;;25.48;47.46
53246;BME280;39569;51.090;-1.786;2022-07-23T12:07:58;101249.44;;;25.67;47.69
53246;BME280;39569;51.090;-1.786;2022-07-23T12:10:32;101246.38;;;26.32;45.78
53246;BME280;39569;51.090;-1.786;2022-07-23T12:13:03;101239.88;;;27.15;45.42
53246;BME280;39569;51.090;-1.786;2022-07-23T12:15:37;101224.56;;;27.39;42.46
53246;BME280;39569;51.090;-1.786;2022-07-23T12:18:06;101231.22;;;28.77;41.38
53246;BME280;39569;51.090;-1.786;2022-07-23T12:20:35;101234.94;;;28.28;40.33
53246;BME280;39569;51.090;-1.786;2022-07-23T12:23:04;101228.72;;;28.86;39.83
53246;BME280;39569;51.090;-1.786;2022-07-23T12:25:33;101237.19;;;27.90;41.97
53246;BME280;39569;51.090;-1.786;2022-07-23T12:28:03;101239.28;;;29.56;37.62
53246;BME280;39569;51.090;-1.786;2022-07-23T12:30:37;101243.13;;;27.07;43.62
53246;BME280;39569;51.090;-1.786;2022-07-23T12:33:05;101253.34;;;28.27;42.30
53246;BME280;39569;51.090;-1.786;2022-07-23T12:35:37;101253.53;;;28.71;40.10
53246;BME280;39569;51.090;-1.786;2022-07-23T12:38:07;101251.09;;;27.03;44.64
53246;BME280;39569;51.090;-1.786;2022-07-23T12:40:36;101254.50;;;27.91;42.38
53246;BME280;39569;51.090;-1.786;2022-07-23T12:43:05;101261.69;;;27.97;42.08
53246;BME280;39569;51.090;-1.786;2022-07-23T12:45:46;101256.31;;;26.43;44.71
53246;BME280;39569;51.090;-1.786;2022-07-23T12:48:25;101254.47;;;25.49;46.96
53246;BME280;39569;51.090;-1.786;2022-07-23T12:50:56;101249.16;;;25.64;48.65